Aeroporto :







RITROVATECI SU...

 
LOGIN :

Iscrizione | Disclaimer

   EN    FR    IT 

 









Sommario :    VFR   VFR Marginale   IFR   IFR Intensivo   IFR Molto Intensivo
Visibilità : 
Base nubi : 
>= 8 km
>= 3000ft
5 / 8 km
1000 / 3000 ft
1500m / 5 km
500 / 1000 ft
800 / 1500m
200 / 500 ft
< 800m
< 200 ft
Simboli :   Temporali  Nebbia  Neve Forte  Precipitazioni Forti  Vento > 20 kt






- Altitudine del aeroporto : 38 ft
- Codice IATA : YMH


CYMH - Mary's Harbour

ULTIMO METAR :
  • 251900Z AUTO 24013G19KT 9SM CLR M07/M13 A3023 RMK SLP237

METARs OBSOLETI :
  • 251800Z AUTO 24013G20KT 9SM CLR M06/M13 A3021 RMK SLP232
  • 251700Z AUTO 26013G23KT 9SM CLR M06/M13 A3018 RMK SLP226

TAF TAF CYMH
Valido dal 25 a 20 ore il 26 a 04 ore UTC


251938Z 2520/2604 24015G25KT P6SM SCT150
BECMG 2600/2602 25012G22KT BKN120 RMK FCST BASED ON AUTO OBS. NXT FCST BY 260200Z
FIR CZQX / America del Nord



MetMap, La meteo Aeronautica in un colpo d'occhio ! - Copyright ORBIFLY Dicembre 2007 - Disclaimer

ORBIFLY MET'MAP TEAM :

Programmazione e sviluppo : Alexandra Zaïnal
Concezione : Baudouin d'Aumeries
Aiuto per la programmazione : Marc-Olivier Méhu
Supporto tecnico e logistico : Manuel Goepfert
Aiuto per la traduzione : Arnaldo La Scala

Contatto : metmap@orbifly.com




FONTI E CREDITI :

   NOAA